createdAt,value
2022-12-01T00:01:14.027Z,12.40
2022-12-01T00:03:40.715Z,13.75
2022-12-01T00:06:10.864Z,12.88
2022-12-01T00:08:37.674Z,13.15
2022-12-01T00:11:14.496Z,13.68
2022-12-01T00:13:41.071Z,11.95
2022-12-01T00:16:16.474Z,12.88
2022-12-01T00:18:43.852Z,12.40
2022-12-01T00:21:18.234Z,12.13
2022-12-01T00:23:49.547Z,12.65
2022-12-01T00:26:17.665Z,12.85
2022-12-01T00:28:44.265Z,12.30
2022-12-01T00:31:12.374Z,13.70
2022-12-01T00:33:39.599Z,12.65
2022-12-01T00:36:07.407Z,12.40
2022-12-01T00:38:34.618Z,13.05
2022-12-01T00:41:01.726Z,12.98
2022-12-01T00:43:28.318Z,12.55
2022-12-01T00:45:56.409Z,12.88
2022-12-01T00:48:23.435Z,12.52
2022-12-01T00:50:52.117Z,14.15
2022-12-01T00:53:18.895Z,13.45
2022-12-01T00:55:45.777Z,12.18
2022-12-01T00:58:12.426Z,11.35
2022-12-01T01:00:39.030Z,12.82
2022-12-01T01:03:07.078Z,12.45
2022-12-01T01:05:41.587Z,12.75
2022-12-01T01:08:13.175Z,12.52
2022-12-01T01:10:45.015Z,11.98
2022-12-01T01:13:13.091Z,12.60
2022-12-01T01:15:40.118Z,12.25
2022-12-01T01:18:09.503Z,12.68
2022-12-01T01:20:36.104Z,12.48
2022-12-01T01:23:02.916Z,12.32
2022-12-01T01:25:29.556Z,11.95
2022-12-01T01:27:56.207Z,13.57
2022-12-01T01:30:22.836Z,13.02
2022-12-01T01:32:49.421Z,12.32
2022-12-01T01:35:16.013Z,11.68
2022-12-01T01:37:42.602Z,12.75
2022-12-01T01:40:09.723Z,12.93
2022-12-01T01:42:36.279Z,13.07
2022-12-01T01:45:03.147Z,14.13
2022-12-01T01:47:34.823Z,13.30
2022-12-01T01:50:08.390Z,13.02
2022-12-01T01:52:38.519Z,13.23
2022-12-01T01:55:05.771Z,13.45
2022-12-01T01:57:34.187Z,13.90
2022-12-01T02:00:07.943Z,12.38
2022-12-01T02:02:43.520Z,13.23
2022-12-01T02:05:16.686Z,13.90
2022-12-01T02:07:45.405Z,12.80
2022-12-01T02:10:14.352Z,12.65
2022-12-01T02:12:59.704Z,12.90
2022-12-01T02:15:32.210Z,12.55
2022-12-01T02:18:24.761Z,12.30
2022-12-01T02:21:33.026Z,13.32
2022-12-01T02:24:51.474Z,12.43
2022-12-01T02:27:27.142Z,11.85
2022-12-01T02:29:56.363Z,11.98
2022-12-01T02:32:51.977Z,12.65
2022-12-01T02:35:42.083Z,12.52
2022-12-01T02:38:21.105Z,11.52
2022-12-01T02:40:55.719Z,12.88
2022-12-01T02:43:44.996Z,12.52
2022-12-01T02:46:28.518Z,12.25
2022-12-01T02:48:58.988Z,12.65
2022-12-01T02:51:30.311Z,12.18
2022-12-01T02:53:59.281Z,12.85
2022-12-01T02:56:26.014Z,12.90
2022-12-01T02:58:52.773Z,13.60
2022-12-01T03:01:37.723Z,12.63
2022-12-01T03:04:30.401Z,12.18
2022-12-01T03:07:38.844Z,13.60
2022-12-01T03:10:25.133Z,12.27
2022-12-01T03:12:57.800Z,12.55
2022-12-01T03:15:42.568Z,13.40
2022-12-01T03:18:35.591Z,11.63
2022-12-01T03:21:17.387Z,13.32
2022-12-01T03:23:47.800Z,12.98
2022-12-01T03:26:18.368Z,14.45
2022-12-01T03:31:22.920Z,14.60
2022-12-01T03:33:55.738Z,13.30
2022-12-01T03:36:27.838Z,12.50
2022-12-01T03:39:03.108Z,13.38
2022-12-01T03:41:37.238Z,13.57
2022-12-01T03:44:11.324Z,12.52
2022-12-01T03:46:55.388Z,14.32
2022-12-01T03:49:23.819Z,14.02
2022-12-01T03:51:58.830Z,13.57
2022-12-01T03:54:28.287Z,14.38
2022-12-01T03:57:05.354Z,14.13
2022-12-01T03:59:35.792Z,13.82
2022-12-01T04:02:02.536Z,13.13
2022-12-01T04:04:29.179Z,14.02
2022-12-01T04:06:55.737Z,13.60
2022-12-01T04:09:22.295Z,13.63
2022-12-01T04:12:07.619Z,16.45
2022-12-01T04:14:34.198Z,13.48
2022-12-01T04:17:00.772Z,13.50
2022-12-01T04:19:27.670Z,14.85
2022-12-01T04:21:54.250Z,14.90
2022-12-01T04:24:20.872Z,14.25
2022-12-01T04:26:47.494Z,15.20
2022-12-01T04:29:14.500Z,14.70
2022-12-01T04:31:41.615Z,14.05
2022-12-01T04:34:09.598Z,15.13
2022-12-01T04:36:36.199Z,13.55
2022-12-01T04:39:03.585Z,13.70
2022-12-01T04:41:30.183Z,14.30
2022-12-01T04:43:56.754Z,14.20
2022-12-01T04:46:24.314Z,14.00
2022-12-01T04:48:51.616Z,15.73
2022-12-01T04:51:18.433Z,15.63
2022-12-01T04:53:45.178Z,15.23
2022-12-01T04:56:11.808Z,16.00
2022-12-01T04:58:39.042Z,15.10
2022-12-01T05:01:14.396Z,15.02
2022-12-01T05:03:43.911Z,17.02
2022-12-01T05:06:16.479Z,15.23
2022-12-01T05:08:43.098Z,17.73
2022-12-01T05:11:12.191Z,17.65
2022-12-01T05:13:43.678Z,15.85
2022-12-01T05:16:15.677Z,17.25
2022-12-01T05:18:42.615Z,15.23
2022-12-01T05:21:11.042Z,16.80
2022-12-01T05:23:38.701Z,19.08
2022-12-01T05:26:07.658Z,17.17
2022-12-01T05:28:34.876Z,17.25
2022-12-01T05:31:01.772Z,16.75
2022-12-01T05:33:29.203Z,17.95
2022-12-01T05:35:56.187Z,17.13
2022-12-01T05:38:22.976Z,17.50
2022-12-01T05:40:54.420Z,18.95
2022-12-01T05:43:28.262Z,17.48
2022-12-01T05:45:57.045Z,15.38
2022-12-01T05:48:24.142Z,16.15
2022-12-01T05:50:50.942Z,17.50
2022-12-01T05:53:18.364Z,16.90
2022-12-01T05:55:45.624Z,14.82
2022-12-01T05:58:12.474Z,17.23
2022-12-01T06:00:45.248Z,16.98
2022-12-01T06:03:13.129Z,16.05
2022-12-01T06:05:39.984Z,16.13
2022-12-01T06:08:06.685Z,16.30
2022-12-01T06:10:33.347Z,18.25
2022-12-01T06:12:59.924Z,17.00
2022-12-01T06:15:27.303Z,15.90
2022-12-01T06:17:53.931Z,17.25
2022-12-01T06:20:20.479Z,16.17
2022-12-01T06:22:47.053Z,14.88
2022-12-01T06:25:13.613Z,15.45
2022-12-01T06:27:40.165Z,15.30
2022-12-01T06:30:07.524Z,16.77
2022-12-01T06:32:34.086Z,15.43
2022-12-01T06:35:00.715Z,16.25
2022-12-01T06:37:28.039Z,15.20
2022-12-01T06:39:54.706Z,17.17
2022-12-01T06:42:21.409Z,17.70
2022-12-01T06:44:48.011Z,18.10
2022-12-01T06:47:15.915Z,16.90
2022-12-01T06:49:42.729Z,17.90
2022-12-01T06:52:10.146Z,16.48
2022-12-01T06:54:37.510Z,17.35
2022-12-01T06:57:04.846Z,16.13
2022-12-01T06:59:31.697Z,15.52
2022-12-01T07:01:58.825Z,15.32
2022-12-01T07:04:25.557Z,17.02
2022-12-01T07:06:52.139Z,18.10
2022-12-01T07:09:18.790Z,15.93
2022-12-01T07:11:45.395Z,14.68
2022-12-01T07:14:24.134Z,15.48
2022-12-01T07:16:51.306Z,15.07
2022-12-01T07:19:18.374Z,15.77
2022-12-01T07:21:44.967Z,16.13
2022-12-01T07:24:14.397Z,16.77
2022-12-01T07:26:42.099Z,14.15
2022-12-01T07:29:10.269Z,14.65
2022-12-01T07:31:38.170Z,15.63
2022-12-01T07:34:05.699Z,16.27
2022-12-01T07:36:32.497Z,16.20
2022-12-01T07:38:59.058Z,17.05
2022-12-01T07:41:25.866Z,15.65
2022-12-01T07:43:52.474Z,17.98
2022-12-01T07:46:23.690Z,17.08
2022-12-01T07:48:51.005Z,15.02
2022-12-01T07:51:17.757Z,17.52
2022-12-01T07:53:49.505Z,18.02
2022-12-01T07:56:17.579Z,18.25
2022-12-01T07:58:44.379Z,17.70
2022-12-01T08:01:13.638Z,19.52
2022-12-01T08:03:40.962Z,17.45
2022-12-01T08:06:08.414Z,18.17
2022-12-01T08:08:36.772Z,19.60
2022-12-01T08:11:06.537Z,19.77
2022-12-01T08:13:33.357Z,19.60
2022-12-01T08:16:04.186Z,18.10
2022-12-01T08:18:30.777Z,17.27
2022-12-01T08:21:00.455Z,18.40
2022-12-01T08:23:27.045Z,18.95
2022-12-01T08:25:53.997Z,18.92
2022-12-01T08:28:21.232Z,16.38
2022-12-01T08:30:47.895Z,17.08
2022-12-01T08:33:14.585Z,18.63
2022-12-01T08:35:41.207Z,17.63
2022-12-01T08:38:08.920Z,18.10
2022-12-01T08:40:35.489Z,18.80
2022-12-01T08:43:02.243Z,18.30
2022-12-01T08:45:28.784Z,20.73
2022-12-01T08:47:58.967Z,20.27
2022-12-01T08:50:27.175Z,19.55
2022-12-01T08:52:54.467Z,19.50
2022-12-01T08:55:22.169Z,19.13
2022-12-01T08:57:48.760Z,19.13
2022-12-01T09:00:16.250Z,20.30
2022-12-01T09:02:42.997Z,20.63
2022-12-01T09:05:10.106Z,20.52
2022-12-01T09:07:36.701Z,18.13
2022-12-01T09:10:04.329Z,20.02
2022-12-01T09:12:30.981Z,18.95
2022-12-01T09:14:57.519Z,21.13
2022-12-01T09:17:24.295Z,20.17
2022-12-01T09:19:51.312Z,19.05
2022-12-01T09:22:18.161Z,19.35
2022-12-01T09:24:45.139Z,20.25
2022-12-01T09:27:11.751Z,18.52
2022-12-01T09:29:38.521Z,19.20
2022-12-01T09:32:05.299Z,19.58
2022-12-01T09:34:31.968Z,17.85
2022-12-01T09:36:58.814Z,18.08
2022-12-01T09:39:25.590Z,18.60
2022-12-01T09:41:55.512Z,18.33
2022-12-01T09:44:34.085Z,13.05
2022-12-01T09:47:05.546Z,17.30
2022-12-01T09:49:51.831Z,18.02
2022-12-01T09:52:19.886Z,17.90
2022-12-01T09:54:50.265Z,18.55
2022-12-01T09:57:39.756Z,17.65
2022-12-01T10:00:21.941Z,17.30
2022-12-01T10:03:12.931Z,17.65
2022-12-01T10:06:25.298Z,18.85
2022-12-01T10:08:43.250Z,18.35
2022-12-01T10:11:32.304Z,18.13
2022-12-01T10:14:00.003Z,17.52
2022-12-01T10:16:38.278Z,17.88
2022-12-01T10:19:16.252Z,19.00
2022-12-01T10:22:18.526Z,16.33
2022-12-01T10:25:14.953Z,18.15
2022-12-01T10:28:12.005Z,16.85
2022-12-01T10:30:49.189Z,15.52
2022-12-01T10:33:35.458Z,16.67
2022-12-01T10:36:02.362Z,16.02
2022-12-01T10:38:34.341Z,15.65
2022-12-01T10:41:03.285Z,17.70
2022-12-01T10:43:39.406Z,16.27
2022-12-01T10:46:40.287Z,16.88
2022-12-01T10:54:13.282Z,15.55
2022-12-01T10:56:41.705Z,15.65
2022-12-01T10:59:21.440Z,16.63
2022-12-01T11:01:48.537Z,17.77
2022-12-01T11:04:45.061Z,16.42
2022-12-01T11:07:28.210Z,17.92
2022-12-01T11:10:18.051Z,16.70
2022-12-01T11:13:20.840Z,18.10
2022-12-01T11:15:55.995Z,18.23
2022-12-01T11:18:24.477Z,16.20
2022-12-01T11:21:10.066Z,16.40
2022-12-01T11:23:48.818Z,15.82
2022-12-01T11:26:28.136Z,15.25
2022-12-01T11:29:06.948Z,18.15
2022-12-01T11:31:47.970Z,17.70
2022-12-01T11:34:19.478Z,15.82
2022-12-01T11:36:49.122Z,15.60
2022-12-01T11:39:32.494Z,15.90
2022-12-01T11:42:02.645Z,16.35
2022-12-01T11:47:28.098Z,15.05
2022-12-01T11:49:57.397Z,15.77
2022-12-01T11:52:27.374Z,15.77
2022-12-01T11:55:08.233Z,13.27
2022-12-01T11:57:39.069Z,16.48
2022-12-01T12:00:21.923Z,16.25
2022-12-01T12:03:06.779Z,16.67
2022-12-01T12:06:31.893Z,17.13
2022-12-01T12:09:03.680Z,16.85
2022-12-01T12:11:46.645Z,16.23
2022-12-01T12:14:22.148Z,17.40
2022-12-01T12:17:15.073Z,15.57
2022-12-01T12:20:08.168Z,15.50
2022-12-01T12:23:18.846Z,14.95
2022-12-01T12:26:01.287Z,16.02
2022-12-01T12:28:44.993Z,15.77
2022-12-01T12:31:20.608Z,16.02
2022-12-01T12:34:13.082Z,16.15
2022-12-01T12:37:00.583Z,15.00
2022-12-01T12:39:45.380Z,14.48
2022-12-01T12:42:32.200Z,15.73
2022-12-01T12:45:47.480Z,15.30
2022-12-01T12:48:32.712Z,15.45
2022-12-01T12:51:13.533Z,15.15
2022-12-01T12:54:12.331Z,14.88
2022-12-01T12:56:43.420Z,15.95
2022-12-01T12:59:15.792Z,16.20
2022-12-01T13:01:47.715Z,14.45
2022-12-01T13:04:21.279Z,16.88
2022-12-01T13:06:55.922Z,15.60
2022-12-01T13:09:28.661Z,16.25
2022-12-01T13:12:09.894Z,16.98
2022-12-01T13:14:41.707Z,18.15
2022-12-01T13:17:20.327Z,16.55
2022-12-01T13:19:48.452Z,18.55
2022-12-01T13:22:18.000Z,16.05
2022-12-01T13:24:44.778Z,16.50
2022-12-01T13:27:14.655Z,16.50
2022-12-01T13:29:47.783Z,17.63
2022-12-01T13:32:34.155Z,16.30
2022-12-01T13:35:03.118Z,16.08
2022-12-01T13:37:38.716Z,17.27
2022-12-01T13:40:29.406Z,16.10
2022-12-01T13:45:40.493Z,17.13
2022-12-01T13:48:45.658Z,16.00
2022-12-01T13:51:12.322Z,17.13
2022-12-01T13:53:39.297Z,16.77
2022-12-01T13:56:15.049Z,16.13
2022-12-01T13:58:46.105Z,17.10
2022-12-01T14:01:22.516Z,16.67
2022-12-01T14:03:57.797Z,17.05
2022-12-01T14:06:51.412Z,17.30
2022-12-01T14:09:40.709Z,16.90
2022-12-01T14:12:32.840Z,16.70
2022-12-01T14:15:04.286Z,16.15
2022-12-01T14:17:37.138Z,16.17
2022-12-01T14:20:12.949Z,16.20
2022-12-01T14:22:44.054Z,16.17
2022-12-01T14:25:19.527Z,16.38
2022-12-01T14:27:48.299Z,15.95
2022-12-01T14:30:44.245Z,15.77
2022-12-01T14:33:48.105Z,14.88
2022-12-01T14:36:25.330Z,14.43
2022-12-01T14:38:57.744Z,15.88
2022-12-01T14:41:25.812Z,16.08
2022-12-01T14:44:06.650Z,16.20
2022-12-01T14:46:58.624Z,15.10
2022-12-01T14:49:35.088Z,14.88
2022-12-01T14:52:06.938Z,15.18
2022-12-01T14:54:44.611Z,16.63
2022-12-01T14:57:16.659Z,14.90
2022-12-01T14:59:44.714Z,15.73
2022-12-01T15:02:12.441Z,15.63
2022-12-01T15:05:06.668Z,15.82
2022-12-01T15:07:38.938Z,15.63
2022-12-01T15:10:06.763Z,16.98
2022-12-01T15:12:33.686Z,16.38
2022-12-01T15:15:00.393Z,14.90
2022-12-01T15:17:35.801Z,15.23
2022-12-01T15:20:03.201Z,15.55
2022-12-01T15:22:31.612Z,14.93
2022-12-01T15:25:15.253Z,14.88
2022-12-01T15:27:43.489Z,16.27
2022-12-01T15:30:14.872Z,14.68
2022-12-01T15:32:45.567Z,15.07
2022-12-01T15:35:22.368Z,13.93
2022-12-01T15:37:50.207Z,14.82
2022-12-01T15:43:14.676Z,16.10
2022-12-01T15:45:45.981Z,15.80
2022-12-01T15:48:27.591Z,15.02
2022-12-01T15:51:09.492Z,15.38
2022-12-01T15:53:40.366Z,15.75
2022-12-01T15:56:10.729Z,16.33
2022-12-01T15:58:45.879Z,14.35
2022-12-01T16:01:14.654Z,14.43
2022-12-01T16:03:59.324Z,15.95
2022-12-01T16:06:33.044Z,14.55
2022-12-01T16:09:19.004Z,15.65
2022-12-01T16:12:04.520Z,14.07
2022-12-01T16:14:32.250Z,16.85
2022-12-01T16:17:00.101Z,15.38
2022-12-01T16:19:32.275Z,14.45
2022-12-01T16:22:01.986Z,14.25
2022-12-01T16:24:30.680Z,13.55
2022-12-01T16:27:02.186Z,15.77
2022-12-01T16:29:31.390Z,15.25
2022-12-01T16:32:20.363Z,15.73
2022-12-01T16:34:47.956Z,14.02
2022-12-01T16:37:14.879Z,16.67
2022-12-01T16:39:41.568Z,17.10
2022-12-01T16:42:12.458Z,15.88
2022-12-01T16:44:39.854Z,14.23
2022-12-01T16:47:32.392Z,16.02
2022-12-01T16:49:58.954Z,15.50
2022-12-01T16:55:24.098Z,15.55
2022-12-01T16:57:51.337Z,15.35
2022-12-01T17:00:18.239Z,15.30
2022-12-01T17:02:44.827Z,15.65
2022-12-01T17:05:11.735Z,15.30
2022-12-01T17:07:38.546Z,15.82
2022-12-01T17:10:06.010Z,15.88
2022-12-01T17:12:32.575Z,17.15
2022-12-01T17:14:59.160Z,17.15
2022-12-01T17:17:25.706Z,17.33
2022-12-01T17:19:52.945Z,16.27
2022-12-01T17:22:19.876Z,14.93
2022-12-01T17:24:46.551Z,14.63
2022-12-01T17:27:13.307Z,16.52
2022-12-01T17:29:45.760Z,16.65
2022-12-01T17:32:13.692Z,15.95
2022-12-01T17:34:40.703Z,14.00
2022-12-01T17:37:07.761Z,14.80
2022-12-01T17:39:34.362Z,15.48
2022-12-01T17:42:01.041Z,13.35
2022-12-01T17:44:27.878Z,15.15
2022-12-01T17:46:54.499Z,14.80
2022-12-01T17:49:21.265Z,15.10
2022-12-01T17:51:47.952Z,17.65
2022-12-01T17:54:14.763Z,15.45
2022-12-01T17:56:42.633Z,16.65
2022-12-01T17:59:09.212Z,15.27
2022-12-01T18:01:35.917Z,15.85
2022-12-01T18:04:02.632Z,15.55
2022-12-01T18:06:29.459Z,14.38
2022-12-01T18:08:57.410Z,16.20
2022-12-01T18:11:24.237Z,14.73
2022-12-01T18:13:51.481Z,15.10
2022-12-01T18:16:27.400Z,15.18
2022-12-01T18:18:54.694Z,15.07
2022-12-01T18:21:22.883Z,14.93
2022-12-01T18:24:01.297Z,14.88
2022-12-01T18:26:29.272Z,15.20
2022-12-01T18:28:58.654Z,15.60
2022-12-01T18:31:26.328Z,15.05
2022-12-01T18:33:53.074Z,14.82
2022-12-01T18:36:22.502Z,19.05
2022-12-01T18:38:50.262Z,17.33
2022-12-01T18:41:17.794Z,17.33
2022-12-01T18:43:44.857Z,16.25
2022-12-01T18:46:13.481Z,15.75
2022-12-01T18:48:45.846Z,15.90
2022-12-01T18:51:12.757Z,16.10
2022-12-01T18:53:39.762Z,15.13
2022-12-01T18:56:11.707Z,16.13
2022-12-01T18:58:39.439Z,15.02
2022-12-01T19:01:24.504Z,14.98
2022-12-01T19:03:51.694Z,14.10
2022-12-01T19:06:18.558Z,14.25
2022-12-01T19:08:46.409Z,15.10
2022-12-01T19:11:13.443Z,13.52
2022-12-01T19:13:40.172Z,14.93
2022-12-01T19:16:18.706Z,15.60
2022-12-01T19:18:45.522Z,14.80
2022-12-01T19:21:14.827Z,15.63
2022-12-01T19:23:42.225Z,16.92
2022-12-01T19:26:13.235Z,17.52
2022-12-01T19:28:42.096Z,16.20
2022-12-01T19:31:13.596Z,16.00
2022-12-01T19:33:40.653Z,16.25
2022-12-01T19:36:09.921Z,15.63
2022-12-01T19:38:36.595Z,15.82
2022-12-01T19:41:05.182Z,16.35
2022-12-01T19:43:34.326Z,15.95
2022-12-01T19:46:12.549Z,17.25
2022-12-01T19:48:39.497Z,14.77
2022-12-01T19:51:06.224Z,14.95
2022-12-01T19:53:34.063Z,16.60
2022-12-01T19:56:03.239Z,16.10
2022-12-01T19:58:33.236Z,15.15
2022-12-01T20:01:11.519Z,12.25
2022-12-01T20:03:40.496Z,17.00
2022-12-01T20:06:09.594Z,17.40
2022-12-01T20:08:36.774Z,16.20
2022-12-01T20:11:04.771Z,16.02
2022-12-01T20:13:36.138Z,17.23
2022-12-01T20:16:05.538Z,16.77
2022-12-01T20:18:32.456Z,15.55
2022-12-01T20:21:17.585Z,17.17
2022-12-01T20:23:45.911Z,15.20
2022-12-01T20:26:14.491Z,16.45
2022-12-01T20:28:41.452Z,16.08
2022-12-01T20:31:17.047Z,15.68
2022-12-01T20:33:43.639Z,16.38
2022-12-01T20:36:10.615Z,16.80
2022-12-01T20:38:37.909Z,14.60
2022-12-01T20:41:05.296Z,16.73
2022-12-01T20:43:32.196Z,16.80
2022-12-01T20:45:59.258Z,15.68
2022-12-01T20:48:26.548Z,16.92
2022-12-01T20:50:53.200Z,16.58
2022-12-01T20:53:19.774Z,16.35
2022-12-01T20:55:46.373Z,15.68
2022-12-01T20:58:13.504Z,17.17
2022-12-01T21:00:44.058Z,16.33
2022-12-01T21:05:42.886Z,15.50
2022-12-01T21:08:12.755Z,14.77
2022-12-01T21:10:42.533Z,12.60
2022-12-01T21:13:39.375Z,17.33
2022-12-01T21:16:13.839Z,15.45
2022-12-01T21:18:55.362Z,16.20
2022-12-01T21:21:25.265Z,16.88
2022-12-01T21:24:10.924Z,13.10
2022-12-01T21:26:39.355Z,14.32
2022-12-01T21:29:24.902Z,16.10
2022-12-01T21:31:53.924Z,15.95
2022-12-01T21:34:23.754Z,16.15
2022-12-01T21:36:54.153Z,15.13
2022-12-01T21:39:22.992Z,15.55
2022-12-01T21:41:51.710Z,14.95
2022-12-01T21:44:20.718Z,15.88
2022-12-01T21:46:51.601Z,14.32
2022-12-01T21:49:21.296Z,15.70
2022-12-01T21:51:52.593Z,16.13
2022-12-01T21:54:20.709Z,16.60
2022-12-01T21:56:48.802Z,15.35
2022-12-01T21:59:23.392Z,15.27
2022-12-01T22:01:55.419Z,15.05
2022-12-01T22:04:25.789Z,15.90
2022-12-01T22:06:54.643Z,14.77
2022-12-01T22:09:27.228Z,15.18
2022-12-01T22:12:09.979Z,14.52
2022-12-01T22:14:36.739Z,16.50
2022-12-01T22:17:06.033Z,15.52
2022-12-01T22:19:34.169Z,15.02
2022-12-01T22:22:22.416Z,14.57
2022-12-01T22:24:51.622Z,14.75
2022-12-01T22:27:30.436Z,14.88
2022-12-01T22:30:17.262Z,17.10
2022-12-01T22:33:00.938Z,15.45
2022-12-01T22:35:39.101Z,15.82
2022-12-01T22:38:05.571Z,15.32
2022-12-01T22:40:37.655Z,15.98
2022-12-01T22:43:16.461Z,15.32
2022-12-01T22:45:57.425Z,15.82
2022-12-01T22:48:23.995Z,15.25
2022-12-01T22:50:52.018Z,16.45
2022-12-01T22:53:23.555Z,16.15
2022-12-01T22:55:54.815Z,16.35
2022-12-01T22:58:27.718Z,16.88
2022-12-01T23:00:57.968Z,15.77
2022-12-01T23:03:24.733Z,15.77
2022-12-01T23:05:55.340Z,17.08
2022-12-01T23:10:49.838Z,14.73
2022-12-01T23:13:22.699Z,16.80
2022-12-01T23:15:51.744Z,17.50
2022-12-01T23:18:28.447Z,15.82
2022-12-01T23:20:57.198Z,16.58
2022-12-01T23:23:35.257Z,16.48
2022-12-01T23:26:03.351Z,15.77
2022-12-01T23:28:30.477Z,16.98
2022-12-01T23:30:59.148Z,17.35
2022-12-01T23:33:29.689Z,16.70
2022-12-01T23:36:00.945Z,17.00
2022-12-01T23:38:36.550Z,14.70
2022-12-01T23:41:07.453Z,16.48
2022-12-01T23:43:43.151Z,16.40
2022-12-01T23:46:22.553Z,16.45
2022-12-01T23:48:52.222Z,17.52
2022-12-01T23:51:28.470Z,17.33
2022-12-01T23:53:57.032Z,15.57
2022-12-01T23:56:26.565Z,16.52
2022-12-01T23:58:55.804Z,17.38
